sensor_id;sensor_type;location;lat;lon;timestamp;pressure;altitude;pressure_sealevel;temperature;humidity
25664;BME280;13522;50.018;20.014;2023-03-01T00:02:00;100166.05;;;-2.00;100.00
25664;BME280;13522;50.018;20.014;2023-03-01T00:05:12;100163.36;;;-1.95;100.00
25664;BME280;13522;50.018;20.014;2023-03-01T00:08:25;100161.66;;;-1.96;100.00
25664;BME280;13522;50.018;20.014;2023-03-01T00:11:40;100158.28;;;-2.01;100.00
25664;BME280;13522;50.018;20.014;2023-03-01T00:14:52;100172.32;;;-2.08;100.00
25664;BME280;13522;50.018;20.014;2023-03-01T00:18:04;100167.28;;;-2.17;100.00
25664;BME280;13522;50.018;20.014;2023-03-01T00:21:16;100162.19;;;-2.23;100.00
25664;BME280;13522;50.018;20.014;2023-03-01T00:24:29;100154.50;;;-2.29;100.00
25664;BME280;13522;50.018;20.014;2023-03-01T00:27:41;100153.67;;;-2.31;100.00
25664;BME280;13522;50.018;20.014;2023-03-01T00:30:55;100152.92;;;-2.36;100.00
25664;BME280;13522;50.018;20.014;2023-03-01T00:34:08;100152.13;;;-2.40;100.00
25664;BME280;13522;50.018;20.014;2023-03-01T00:37:21;100149.53;;;-2.41;100.00
25664;BME280;13522;50.018;20.014;2023-03-01T00:40:35;100157.41;;;-2.44;100.00
25664;BME280;13522;50.018;20.014;2023-03-01T00:43:48;100155.79;;;-2.51;100.00
25664;BME280;13522;50.018;20.014;2023-03-01T00:47:00;100153.23;;;-2.53;100.00
25664;BME280;13522;50.018;20.014;2023-03-01T00:50:13;100143.69;;;-2.52;100.00
25664;BME280;13522;50.018;20.014;2023-03-01T00:53:26;100138.48;;;-2.52;100.00
25664;BME280;13522;50.018;20.014;2023-03-01T00:56:38;100141.95;;;-2.53;100.00
25664;BME280;13522;50.018;20.014;2023-03-01T00:59:50;100129.93;;;-2.57;100.00
25664;BME280;13522;50.018;20.014;2023-03-01T01:03:04;100131.70;;;-2.59;100.00
25664;BME280;13522;50.018;20.014;2023-03-01T01:06:18;100128.31;;;-2.65;100.00
25664;BME280;13522;50.018;20.014;2023-03-01T01:09:32;100123.11;;;-2.65;100.00
25664;BME280;13522;50.018;20.014;2023-03-01T01:12:45;100115.27;;;-2.63;100.00
25664;BME280;13522;50.018;20.014;2023-03-01T01:16:01;100108.07;;;-2.49;100.00
25664;BME280;13522;50.018;20.014;2023-03-01T01:19:15;100113.70;;;-2.27;100.00
25664;BME280;13522;50.018;20.014;2023-03-01T01:22:27;100109.29;;;-2.24;100.00
25664;BME280;13522;50.018;20.014;2023-03-01T01:25:40;100111.81;;;-2.19;100.00
25664;BME280;13522;50.018;20.014;2023-03-01T01:28:52;100112.88;;;-2.28;100.00
25664;BME280;13522;50.018;20.014;2023-03-01T01:32:06;100117.49;;;-2.43;100.00
25664;BME280;13522;50.018;20.014;2023-03-01T01:35:18;100112.41;;;-2.49;100.00
25664;BME280;13522;50.018;20.014;2023-03-01T01:38:30;100110.00;;;-2.58;100.00
25664;BME280;13522;50.018;20.014;2023-03-01T01:41:43;100107.40;;;-2.58;100.00
25664;BME280;13522;50.018;20.014;2023-03-01T01:48:53;100092.92;;;-2.72;100.00
25664;BME280;13522;50.018;20.014;2023-03-01T01:52:08;100091.31;;;-2.79;100.00
25664;BME280;13522;50.018;20.014;2023-03-01T01:55:25;100096.76;;;-2.92;100.00
25664;BME280;13522;50.018;20.014;2023-03-01T01:58:39;100093.47;;;-3.02;100.00
25664;BME280;13522;50.018;20.014;2023-03-01T02:01:54;100097.63;;;-2.92;100.00
25664;BME280;13522;50.018;20.014;2023-03-01T02:05:11;100103.87;;;-3.02;100.00
25664;BME280;13522;50.018;20.014;2023-03-01T02:08:27;100102.93;;;-2.98;100.00
25664;BME280;13522;50.018;20.014;2023-03-01T02:11:41;100089.97;;;-3.01;100.00
25664;BME280;13522;50.018;20.014;2023-03-01T02:14:55;100085.71;;;-3.03;100.00
25664;BME280;13522;50.018;20.014;2023-03-01T02:18:09;100094.34;;;-3.01;100.00
25664;BME280;13522;50.018;20.014;2023-03-01T02:21:41;100089.11;;;-3.00;100.00
25664;BME280;13522;50.018;20.014;2023-03-01T02:25:03;100101.27;;;-3.02;100.00
25664;BME280;13522;50.018;20.014;2023-03-01T02:28:38;100104.04;;;-3.12;100.00
25664;BME280;13522;50.018;20.014;2023-03-01T02:31:54;100096.07;;;-3.02;100.00
25664;BME280;13522;50.018;20.014;2023-03-01T02:35:10;100113.63;;;-3.16;100.00
25664;BME280;13522;50.018;20.014;2023-03-01T02:38:25;100114.50;;;-3.17;100.00
25664;BME280;13522;50.018;20.014;2023-03-01T02:41:39;100113.63;;;-3.16;100.00
25664;BME280;13522;50.018;20.014;2023-03-01T02:44:55;100113.63;;;-3.16;100.00
25664;BME280;13522;50.018;20.014;2023-03-01T02:48:08;100111.80;;;-3.09;100.00
25664;BME280;13522;50.018;20.014;2023-03-01T02:51:38;100107.53;;;-3.15;100.00
25664;BME280;13522;50.018;20.014;2023-03-01T02:54:56;100105.07;;;-3.22;100.00
25664;BME280;13522;50.018;20.014;2023-03-01T02:58:11;100105.07;;;-3.22;100.00
25664;BME280;13522;50.018;20.014;2023-03-01T03:01:23;100108.60;;;-3.25;100.00
25664;BME280;13522;50.018;20.014;2023-03-01T03:04:37;100105.97;;;-3.23;100.00
25664;BME280;13522;50.018;20.014;2023-03-01T03:07:50;100105.87;;;-3.19;100.00
25664;BME280;13522;50.018;20.014;2023-03-01T03:11:02;100105.01;;;-3.18;100.00
25664;BME280;13522;50.018;20.014;2023-03-01T03:14:16;100076.80;;;-3.40;100.00
25664;BME280;13522;50.018;20.014;2023-03-01T03:17:29;100097.31;;;-3.24;100.00
25664;BME280;13522;50.018;20.014;2023-03-01T03:20:42;100095.64;;;-3.28;100.00
25664;BME280;13522;50.018;20.014;2023-03-01T03:23:57;100090.48;;;-3.29;100.00
25664;BME280;13522;50.018;20.014;2023-03-01T03:27:09;100083.56;;;-3.29;100.00
25664;BME280;13522;50.018;20.014;2023-03-01T03:30:22;100094.78;;;-3.27;100.00
25664;BME280;13522;50.018;20.014;2023-03-01T03:33:35;100099.78;;;-3.16;100.00
25664;BME280;13522;50.018;20.014;2023-03-01T03:36:47;100091.84;;;-3.07;100.00
25664;BME280;13522;50.018;20.014;2023-03-01T03:40:02;100088.31;;;-3.03;100.00
25664;BME280;13522;50.018;20.014;2023-03-01T03:43:18;100077.16;;;-3.10;100.00
25664;BME280;13522;50.018;20.014;2023-03-01T03:46:31;100080.63;;;-3.09;100.00
25664;BME280;13522;50.018;20.014;2023-03-01T03:49:43;100083.19;;;-3.08;100.00
25664;BME280;13522;50.018;20.014;2023-03-01T03:52:55;100085.85;;;-3.12;100.00
25664;BME280;13522;50.018;20.014;2023-03-01T03:56:08;100089.48;;;-3.22;100.00
25664;BME280;13522;50.018;20.014;2023-03-01T03:59:20;100099.91;;;-3.24;100.00
25664;BME280;13522;50.018;20.014;2023-03-01T04:02:32;100101.77;;;-3.32;100.00
25664;BME280;13522;50.018;20.014;2023-03-01T04:05:45;100101.88;;;-3.38;100.00
25664;BME280;13522;50.018;20.014;2023-03-01T04:08:58;100094.88;;;-3.33;100.00
25664;BME280;13522;50.018;20.014;2023-03-01T04:12:11;100092.22;;;-3.30;100.00
25664;BME280;13522;50.018;20.014;2023-03-01T04:15:27;100100.91;;;-3.32;100.00
25664;BME280;13522;50.018;20.014;2023-03-01T04:18:39;100095.84;;;-3.40;100.00
25664;BME280;13522;50.018;20.014;2023-03-01T04:21:51;100092.50;;;-3.48;100.00
25664;BME280;13522;50.018;20.014;2023-03-01T04:25:03;100093.44;;;-3.52;100.00
25664;BME280;13522;50.018;20.014;2023-03-01T04:28:17;100100.39;;;-3.54;100.00
25664;BME280;13522;50.018;20.014;2023-03-01T04:31:30;100099.50;;;-3.52;100.00
25664;BME280;13522;50.018;20.014;2023-03-01T04:34:42;100100.48;;;-3.60;100.00
25664;BME280;13522;50.018;20.014;2023-03-01T04:37:55;100093.53;;;-3.58;100.00
25664;BME280;13522;50.018;20.014;2023-03-01T04:41:08;100098.72;;;-3.57;100.00
25664;BME280;13522;50.018;20.014;2023-03-01T04:44:21;100094.42;;;-3.59;100.00
25664;BME280;13522;50.018;20.014;2023-03-01T04:47:33;100091.05;;;-3.66;100.00
25664;BME280;13522;50.018;20.014;2023-03-01T04:50:45;100079.72;;;-3.59;100.00
25664;BME280;13522;50.018;20.014;2023-03-01T04:53:56;100083.20;;;-3.61;100.00
25664;BME280;13522;50.018;20.014;2023-03-01T04:57:09;100082.41;;;-3.65;100.00
25664;BME280;13522;50.018;20.014;2023-03-01T05:00:23;100076.28;;;-3.61;100.00
25664;BME280;13522;50.018;20.014;2023-03-01T05:03:35;100076.16;;;-3.53;100.00
25664;BME280;13522;50.018;20.014;2023-03-01T05:06:48;100066.64;;;-3.54;100.00
25664;BME280;13522;50.018;20.014;2023-03-01T05:10:06;100070.00;;;-3.47;100.00
25664;BME280;13522;50.018;20.014;2023-03-01T05:13:20;100067.34;;;-3.43;100.00
25664;BME280;13522;50.018;20.014;2023-03-01T05:16:35;100072.63;;;-3.49;100.00
25664;BME280;13522;50.018;20.014;2023-03-01T05:19:47;100068.41;;;-3.55;100.00
25664;BME280;13522;50.018;20.014;2023-03-01T05:23:01;100058.91;;;-3.57;100.00
25664;BME280;13522;50.018;20.014;2023-03-01T05:26:14;100060.61;;;-3.56;100.00
25664;BME280;13522;50.018;20.014;2023-03-01T05:29:32;100063.95;;;-3.48;100.00
25664;BME280;13522;50.018;20.014;2023-03-01T05:32:46;100065.61;;;-3.44;100.00
25664;BME280;13522;50.018;20.014;2023-03-01T05:36:03;100071.61;;;-3.40;100.00
25664;BME280;13522;50.018;20.014;2023-03-01T05:39:16;100075.90;;;-3.38;100.00
25664;BME280;13522;50.018;20.014;2023-03-01T05:42:28;100088.15;;;-3.46;100.00
25664;BME280;13522;50.018;20.014;2023-03-01T05:45:40;100084.05;;;-3.59;100.00
25664;BME280;13522;50.018;20.014;2023-03-01T05:48:53;100093.56;;;-3.60;100.00
25664;BME280;13522;50.018;20.014;2023-03-01T05:52:06;100091.73;;;-3.53;100.00
25664;BME280;13522;50.018;20.014;2023-03-01T05:55:20;100087.28;;;-3.46;100.00
25664;BME280;13522;50.018;20.014;2023-03-01T05:58:34;100094.88;;;-3.33;100.00
25664;BME280;13522;50.018;20.014;2023-03-01T06:01:47;100076.33;;;-3.12;100.00
25664;BME280;13522;50.018;20.014;2023-03-01T06:04:59;100082.79;;;-2.87;100.00
25664;BME280;13522;50.018;20.014;2023-03-01T06:08:12;100078.72;;;-2.55;100.00
25664;BME280;13522;50.018;20.014;2023-03-01T06:11:26;100084.39;;;-2.35;100.00
25664;BME280;13522;50.018;20.014;2023-03-01T06:14:38;100064.95;;;-1.80;100.00
25664;BME280;13522;50.018;20.014;2023-03-01T06:17:50;100055.84;;;-1.27;100.00
25664;BME280;13522;50.018;20.014;2023-03-01T06:21:07;100069.25;;;-0.74;99.61
25664;BME280;13522;50.018;20.014;2023-03-01T06:24:19;100066.44;;;-0.67;98.24
25664;BME280;13522;50.018;20.014;2023-03-01T06:27:31;100069.91;;;-0.66;97.40
25664;BME280;13522;50.018;20.014;2023-03-01T06:30:44;100071.27;;;-0.53;97.59
25664;BME280;13522;50.018;20.014;2023-03-01T06:33:56;100076.95;;;-0.38;96.07
25664;BME280;13522;50.018;20.014;2023-03-01T06:37:09;100069.88;;;-0.05;94.50
25664;BME280;13522;50.018;20.014;2023-03-01T06:40:21;100059.94;;;0.35;93.26
25664;BME280;13522;50.018;20.014;2023-03-01T06:43:33;100066.41;;;0.50;91.48
25664;BME280;13522;50.018;20.014;2023-03-01T06:46:45;100069.61;;;0.59;90.99
25664;BME280;13522;50.018;20.014;2023-03-01T06:49:57;100062.27;;;0.97;89.59
25664;BME280;13522;50.018;20.014;2023-03-01T06:53:10;100054.20;;;1.27;88.27
25664;BME280;13522;50.018;20.014;2023-03-01T06:56:22;100066.66;;;1.21;87.69
25664;BME280;13522;50.018;20.014;2023-03-01T06:59:34;100051.78;;;2.15;85.38
25664;BME280;13522;50.018;20.014;2023-03-01T07:02:46;100048.09;;;2.84;81.96
25664;BME280;13522;50.018;20.014;2023-03-01T07:05:58;100046.80;;;2.94;81.11
25664;BME280;13522;50.018;20.014;2023-03-01T07:09:10;100035.42;;;3.54;79.00
25664;BME280;13522;50.018;20.014;2023-03-01T07:12:24;100038.14;;;4.08;76.90
25664;BME280;13522;50.018;20.014;2023-03-01T07:15:37;100018.08;;;4.43;75.04
25664;BME280;13522;50.018;20.014;2023-03-01T07:18:50;100011.70;;;4.83;73.88
25664;BME280;13522;50.018;20.014;2023-03-01T07:22:04;100009.45;;;5.26;72.46
25664;BME280;13522;50.018;20.014;2023-03-01T07:25:17;99993.06;;;5.37;71.08
25664;BME280;13522;50.018;20.014;2023-03-01T07:28:30;99982.17;;;5.60;71.23
25664;BME280;13522;50.018;20.014;2023-03-01T07:31:44;99969.67;;;5.64;70.94
25664;BME280;13522;50.018;20.014;2023-03-01T07:34:56;99967.42;;;6.04;69.43
25664;BME280;13522;50.018;20.014;2023-03-01T07:38:08;99966.46;;;6.37;68.40
25664;BME280;13522;50.018;20.014;2023-03-01T07:41:20;99964.14;;;6.46;69.13
25664;BME280;13522;50.018;20.014;2023-03-01T07:44:33;99965.54;;;7.11;64.02
25664;BME280;13522;50.018;20.014;2023-03-01T07:47:46;99964.15;;;6.76;65.21
25664;BME280;13522;50.018;20.014;2023-03-01T07:51:00;99978.06;;;5.87;68.90
25664;BME280;13522;50.018;20.014;2023-03-01T07:54:13;99983.41;;;5.53;71.25
25664;BME280;13522;50.018;20.014;2023-03-01T07:57:26;100005.32;;;5.21;72.24
25664;BME280;13522;50.018;20.014;2023-03-01T08:00:38;100000.08;;;5.04;73.73
25664;BME280;13522;50.018;20.014;2023-03-01T08:03:50;100007.79;;;4.56;75.46
25664;BME280;13522;50.018;20.014;2023-03-01T08:07:04;99997.44;;;4.70;74.50
25664;BME280;13522;50.018;20.014;2023-03-01T08:10:16;100003.11;;;4.96;73.97
25664;BME280;13522;50.018;20.014;2023-03-01T08:13:29;99997.47;;;4.87;73.85
25664;BME280;13522;50.018;20.014;2023-03-01T08:16:42;99987.17;;;5.65;72.10
25664;BME280;13522;50.018;20.014;2023-03-01T08:19:54;99981.20;;;6.25;68.98
25664;BME280;13522;50.018;20.014;2023-03-01T08:23:06;99964.75;;;6.81;66.19
25664;BME280;13522;50.018;20.014;2023-03-01T08:26:20;99966.40;;;7.12;65.21
25664;BME280;13522;50.018;20.014;2023-03-01T08:29:33;99968.38;;;7.08;65.42
25664;BME280;13522;50.018;20.014;2023-03-01T08:32:45;99956.83;;;6.81;65.76
25664;BME280;13522;50.018;20.014;2023-03-01T08:36:05;99961.96;;;6.68;66.33
25664;BME280;13522;50.018;20.014;2023-03-01T08:39:19;99948.55;;;6.87;65.33
25664;BME280;13522;50.018;20.014;2023-03-01T08:42:32;99947.66;;;7.30;64.84
25664;BME280;13522;50.018;20.014;2023-03-01T08:45:44;99941.41;;;7.59;62.15
25664;BME280;13522;50.018;20.014;2023-03-01T08:48:58;99930.33;;;7.81;62.59
25664;BME280;13522;50.018;20.014;2023-03-01T08:52:10;99934.39;;;8.27;60.99
25664;BME280;13522;50.018;20.014;2023-03-01T08:55:22;99934.70;;;8.62;58.47
25664;BME280;13522;50.018;20.014;2023-03-01T08:58:34;99929.06;;;8.54;58.63
25664;BME280;13522;50.018;20.014;2023-03-01T09:01:46;99947.12;;;8.35;58.46
25664;BME280;13522;50.018;20.014;2023-03-01T09:04:58;99942.27;;;8.81;56.86
25664;BME280;13522;50.018;20.014;2023-03-01T09:08:11;99937.33;;;9.01;55.07
25664;BME280;13522;50.018;20.014;2023-03-01T09:11:23;99938.78;;;9.05;54.95
25664;BME280;13522;50.018;20.014;2023-03-01T09:14:35;99934.97;;;9.09;54.92
25664;BME280;13522;50.018;20.014;2023-03-01T09:17:48;99933.91;;;8.87;55.74
25664;BME280;13522;50.018;20.014;2023-03-01T09:21:04;99929.91;;;9.06;52.11
25664;BME280;13522;50.018;20.014;2023-03-01T09:24:18;99929.05;;;9.06;52.49
25664;BME280;13522;50.018;20.014;2023-03-01T09:27:31;99924.34;;;9.72;52.40
25664;BME280;13522;50.018;20.014;2023-03-01T09:30:43;99919.96;;;10.78;48.67
25664;BME280;13522;50.018;20.014;2023-03-01T09:33:56;99924.83;;;10.26;48.44
25664;BME280;13522;50.018;20.014;2023-03-01T09:37:08;99913.81;;;10.19;49.42
25664;BME280;13522;50.018;20.014;2023-03-01T09:40:23;99919.03;;;10.90;49.46
25664;BME280;13522;50.018;20.014;2023-03-01T09:43:41;99916.84;;;10.84;48.84
25664;BME280;13522;50.018;20.014;2023-03-01T09:47:01;99911.10;;;11.12;45.96
25664;BME280;13522;50.018;20.014;2023-03-01T09:50:16;99914.47;;;9.74;48.72
25664;BME280;13522;50.018;20.014;2023-03-01T09:53:32;99921.16;;;10.16;48.34
25664;BME280;13522;50.018;20.014;2023-03-01T09:56:51;99920.75;;;9.97;46.38
25664;BME280;13522;50.018;20.014;2023-03-01T10:00:33;99919.28;;;9.56;46.69
25664;BME280;13522;50.018;20.014;2023-03-01T10:03:58;99915.84;;;10.16;46.99
25664;BME280;13522;50.018;20.014;2023-03-01T10:07:21;99909.73;;;10.26;44.51
25664;BME280;13522;50.018;20.014;2023-03-01T10:10:43;99910.17;;;10.20;46.70
25664;BME280;13522;50.018;20.014;2023-03-01T10:14:01;99909.24;;;9.73;48.56
25664;BME280;13522;50.018;20.014;2023-03-01T10:17:19;99919.59;;;9.52;48.93
25664;BME280;13522;50.018;20.014;2023-03-01T10:20:42;99915.47;;;8.98;49.59
25664;BME280;13522;50.018;20.014;2023-03-01T10:23:57;99911.75;;;8.88;52.94
25664;BME280;13522;50.018;20.014;2023-03-01T10:27:17;99906.05;;;9.06;51.19
25664;BME280;13522;50.018;20.014;2023-03-01T10:30:36;99898.70;;;8.72;51.55
25664;BME280;13522;50.018;20.014;2023-03-01T10:33:49;99905.64;;;8.48;50.84
25664;BME280;13522;50.018;20.014;2023-03-01T10:37:12;99889.59;;;8.76;48.71
25664;BME280;13522;50.018;20.014;2023-03-01T10:40:27;99901.91;;;8.77;48.21
25664;BME280;13522;50.018;20.014;2023-03-01T10:43:46;99895.03;;;8.87;47.29
25664;BME280;13522;50.018;20.014;2023-03-01T10:47:02;99895.66;;;8.91;48.67
25664;BME280;13522;50.018;20.014;2023-03-01T10:50:22;99893.63;;;8.82;48.26
25664;BME280;13522;50.018;20.014;2023-03-01T10:53:35;99890.25;;;8.92;49.38
25664;BME280;13522;50.018;20.014;2023-03-01T10:56:52;99892.46;;;8.86;48.94
25664;BME280;13522;50.018;20.014;2023-03-01T11:00:25;99890.45;;;8.77;51.16
25664;BME280;13522;50.018;20.014;2023-03-01T11:03:39;99892.99;;;9.03;52.71
25664;BME280;13522;50.018;20.014;2023-03-01T11:06:59;99876.31;;;9.51;49.61
25664;BME280;13522;50.018;20.014;2023-03-01T11:10:18;99865.50;;;9.54;51.55
25664;BME280;13522;50.018;20.014;2023-03-01T11:13:32;99868.20;;;10.02;50.18
25664;BME280;13522;50.018;20.014;2023-03-01T11:16:46;99867.09;;;9.81;52.42
25664;BME280;13522;50.018;20.014;2023-03-01T11:20:13;99866.00;;;9.59;52.19
25664;BME280;13522;50.018;20.014;2023-03-01T11:23:29;99865.30;;;9.81;50.10
25664;BME280;13522;50.018;20.014;2023-03-01T11:26:45;99862.31;;;9.49;51.45
25664;BME280;13522;50.018;20.014;2023-03-01T11:30:03;99856.92;;;9.75;48.92
25664;BME280;13522;50.018;20.014;2023-03-01T11:33:23;99854.23;;;9.51;49.53
25664;BME280;13522;50.018;20.014;2023-03-01T11:36:41;99843.88;;;9.35;49.14
25664;BME280;13522;50.018;20.014;2023-03-01T11:40:02;99852.00;;;9.57;49.72
25664;BME280;13522;50.018;20.014;2023-03-01T11:43:30;99842.66;;;9.65;49.12
25664;BME280;13522;50.018;20.014;2023-03-01T11:50:38;99833.78;;;9.77;47.52
25664;BME280;13522;50.018;20.014;2023-03-01T11:54:09;99819.84;;;10.33;47.18
25664;BME280;13522;50.018;20.014;2023-03-01T11:57:37;99830.80;;;10.05;49.19
25664;BME280;13522;50.018;20.014;2023-03-01T12:01:21;99822.48;;;10.22;48.17
25664;BME280;13522;50.018;20.014;2023-03-01T12:04:57;99814.88;;;9.57;47.70
25664;BME280;13522;50.018;20.014;2023-03-01T12:08:29;99820.27;;;9.92;48.73
25664;BME280;13522;50.018;20.014;2023-03-01T12:11:58;99815.43;;;10.10;47.61
25664;BME280;13522;50.018;20.014;2023-03-01T12:15:33;99807.09;;;9.91;47.84
25664;BME280;13522;50.018;20.014;2023-03-01T12:19:33;99804.56;;;10.13;46.86
25664;BME280;13522;50.018;20.014;2023-03-01T12:26:44;99800.28;;;9.39;48.17
25664;BME280;13522;50.018;20.014;2023-03-01T12:30:04;99806.50;;;9.51;48.66
25664;BME280;13522;50.018;20.014;2023-03-01T12:33:29;99802.34;;;9.59;50.40
25664;BME280;13522;50.018;20.014;2023-03-01T12:36:54;99804.72;;;9.75;48.81
25664;BME280;13522;50.018;20.014;2023-03-01T12:40:31;99770.40;;;9.01;48.84
25664;BME280;13522;50.018;20.014;2023-03-01T12:44:01;99780.78;;;9.40;49.24
25664;BME280;13522;50.018;20.014;2023-03-01T12:47:23;99780.02;;;9.15;49.35
25664;BME280;13522;50.018;20.014;2023-03-01T12:50:48;99774.48;;;9.18;50.19
25664;BME280;13522;50.018;20.014;2023-03-01T12:54:05;99769.84;;;9.09;50.74
25664;BME280;13522;50.018;20.014;2023-03-01T12:57:26;99776.87;;;9.33;48.83
25664;BME280;13522;50.018;20.014;2023-03-01T13:00:48;99772.98;;;9.26;53.38
25664;BME280;13522;50.018;20.014;2023-03-01T13:04:30;99761.98;;;9.07;51.08
25664;BME280;13522;50.018;20.014;2023-03-01T13:07:51;99776.02;;;8.84;52.01
25664;BME280;13522;50.018;20.014;2023-03-01T13:11:11;99765.75;;;8.42;51.23
25664;BME280;13522;50.018;20.014;2023-03-01T13:14:44;99764.38;;;8.36;50.76
25664;BME280;13522;50.018;20.014;2023-03-01T13:17:58;99772.20;;;8.38;50.07
25664;BME280;13522;50.018;20.014;2023-03-01T13:21:11;99768.73;;;8.62;49.75
25664;BME280;13522;50.018;20.014;2023-03-01T13:24:28;99767.98;;;8.60;50.79
25664;BME280;13522;50.018;20.014;2023-03-01T13:27:44;99771.26;;;8.64;49.12
25664;BME280;13522;50.018;20.014;2023-03-01T13:30:57;99767.77;;;8.76;47.68
25664;BME280;13522;50.018;20.014;2023-03-01T13:41:53;99748.55;;;8.98;46.65
25664;BME280;13522;50.018;20.014;2023-03-01T13:45:31;99749.09;;;8.90;48.76
25664;BME280;13522;50.018;20.014;2023-03-01T13:48:47;99740.60;;;8.98;46.23
25664;BME280;13522;50.018;20.014;2023-03-01T13:52:03;99745.52;;;8.79;44.67
25664;BME280;13522;50.018;20.014;2023-03-01T13:55:25;99738.00;;;8.72;45.51
25664;BME280;13522;50.018;20.014;2023-03-01T13:58:59;99731.10;;;8.83;45.99
25664;BME280;13522;50.018;20.014;2023-03-01T14:02:14;99723.91;;;8.72;45.98
25664;BME280;13522;50.018;20.014;2023-03-01T14:05:27;99722.73;;;8.76;46.63
25664;BME280;13522;50.018;20.014;2023-03-01T14:08:41;99717.54;;;8.87;46.54
25664;BME280;13522;50.018;20.014;2023-03-01T14:12:10;99721.36;;;8.83;46.54
25664;BME280;13522;50.018;20.014;2023-03-01T14:15:35;99720.31;;;8.73;47.11
25664;BME280;13522;50.018;20.014;2023-03-01T14:18:50;99723.28;;;8.56;44.79
25664;BME280;13522;50.018;20.014;2023-03-01T14:22:12;99711.24;;;8.39;44.52
25664;BME280;13522;50.018;20.014;2023-03-01T14:25:29;99710.36;;;8.14;44.97
25664;BME280;13522;50.018;20.014;2023-03-01T14:28:43;99709.89;;;7.95;48.52
25664;BME280;13522;50.018;20.014;2023-03-01T14:31:55;99715.66;;;7.74;49.90
25664;BME280;13522;50.018;20.014;2023-03-01T14:35:24;99721.45;;;7.54;50.28
25664;BME280;13522;50.018;20.014;2023-03-01T14:38:39;99709.84;;;7.30;50.97
25664;BME280;13522;50.018;20.014;2023-03-01T14:41:53;99723.05;;;7.30;48.86
25664;BME280;13522;50.018;20.014;2023-03-01T14:45:10;99723.84;;;7.18;50.76
25664;BME280;13522;50.018;20.014;2023-03-01T14:48:24;99720.80;;;7.24;49.56
25664;BME280;13522;50.018;20.014;2023-03-01T14:51:42;99717.30;;;7.24;50.30
25664;BME280;13522;50.018;20.014;2023-03-01T14:54:56;99724.98;;;7.14;52.28
25664;BME280;13522;50.018;20.014;2023-03-01T14:58:13;99723.33;;;6.99;52.10
25664;BME280;13522;50.018;20.014;2023-03-01T15:01:28;99716.55;;;6.95;52.59
25664;BME280;13522;50.018;20.014;2023-03-01T15:04:41;99716.46;;;6.82;53.03
25664;BME280;13522;50.018;20.014;2023-03-01T15:07:53;99717.88;;;6.60;52.47
25664;BME280;13522;50.018;20.014;2023-03-01T15:11:17;99722.61;;;6.55;54.01
25664;BME280;13522;50.018;20.014;2023-03-01T15:14:40;99718.19;;;6.41;53.74
25664;BME280;13522;50.018;20.014;2023-03-01T15:17:58;99718.66;;;6.34;52.46
25664;BME280;13522;50.018;20.014;2023-03-01T15:21:17;99717.69;;;6.21;54.15
25664;BME280;13522;50.018;20.014;2023-03-01T15:24:30;99717.39;;;6.11;56.19
25664;BME280;13522;50.018;20.014;2023-03-01T15:27:47;99719.48;;;6.06;55.35
25664;BME280;13522;50.018;20.014;2023-03-01T15:31:00;99721.16;;;6.07;57.32
25664;BME280;13522;50.018;20.014;2023-03-01T15:34:22;99716.88;;;5.90;58.25
25664;BME280;13522;50.018;20.014;2023-03-01T15:37:45;99714.59;;;5.84;57.39
25664;BME280;13522;50.018;20.014;2023-03-01T15:41:01;99717.66;;;5.77;59.08
25664;BME280;13522;50.018;20.014;2023-03-01T15:44:25;99721.10;;;5.63;60.81
25664;BME280;13522;50.018;20.014;2023-03-01T15:47:46;99717.20;;;5.55;62.05
25664;BME280;13522;50.018;20.014;2023-03-01T15:50:59;99709.94;;;5.44;63.56
25664;BME280;13522;50.018;20.014;2023-03-01T15:54:16;99717.75;;;5.46;61.82
25664;BME280;13522;50.018;20.014;2023-03-01T15:57:27;99717.94;;;5.43;63.80
25664;BME280;13522;50.018;20.014;2023-03-01T16:00:39;99717.11;;;5.26;64.85
25664;BME280;13522;50.018;20.014;2023-03-01T16:03:55;99717.03;;;5.12;63.52
25664;BME280;13522;50.018;20.014;2023-03-01T16:07:08;99715.08;;;5.00;62.49
25664;BME280;13522;50.018;20.014;2023-03-01T16:10:21;99723.74;;;4.87;62.69
25664;BME280;13522;50.018;20.014;2023-03-01T16:13:34;99731.11;;;4.80;63.87
25664;BME280;13522;50.018;20.014;2023-03-01T16:16:46;99730.00;;;4.69;63.57
25664;BME280;13522;50.018;20.014;2023-03-01T16:19:59;99735.74;;;4.60;63.28
25664;BME280;13522;50.018;20.014;2023-03-01T16:23:12;99734.56;;;4.50;64.09
25664;BME280;13522;50.018;20.014;2023-03-01T16:26:24;99738.28;;;4.46;65.71
25664;BME280;13522;50.018;20.014;2023-03-01T16:29:37;99739.52;;;4.38;65.03
25664;BME280;13522;50.018;20.014;2023-03-01T16:32:50;99730.73;;;4.22;65.59
25664;BME280;13522;50.018;20.014;2023-03-01T16:36:08;99748.69;;;4.14;67.55
25664;BME280;13522;50.018;20.014;2023-03-01T16:39:22;99751.71;;;4.07;69.15
25664;BME280;13522;50.018;20.014;2023-03-01T16:42:36;99753.80;;;4.00;68.69
25664;BME280;13522;50.018;20.014;2023-03-01T16:45:49;99760.08;;;3.98;69.24
25664;BME280;13522;50.018;20.014;2023-03-01T16:49:01;99747.94;;;3.95;69.61
25664;BME280;13522;50.018;20.014;2023-03-01T16:52:13;99754.49;;;3.87;69.58
25664;BME280;13522;50.018;20.014;2023-03-01T16:55:25;99747.86;;;3.80;68.97
25664;BME280;13522;50.018;20.014;2023-03-01T16:58:39;99752.56;;;3.73;69.48
25664;BME280;13522;50.018;20.014;2023-03-01T17:01:51;99752.73;;;3.70;69.77
25664;BME280;13522;50.018;20.014;2023-03-01T17:05:04;99749.55;;;3.64;69.77
25664;BME280;13522;50.018;20.014;2023-03-01T17:08:18;99754.33;;;3.56;69.34
25664;BME280;13522;50.018;20.014;2023-03-01T17:11:30;99752.08;;;3.48;70.13
25664;BME280;13522;50.018;20.014;2023-03-01T17:14:43;99755.30;;;3.36;70.65
25664;BME280;13522;50.018;20.014;2023-03-01T17:17:55;99759.77;;;3.34;70.44
25664;BME280;13522;50.018;20.014;2023-03-01T17:21:09;99765.45;;;3.25;71.89